Time;durP1;ratioP1;P1;durP2;ratioP2;P2;SDS_P1;SDS_P2;PMS_P1;PMS_P2;Temp;Humidity;BMP_temperature;BMP_pressure;BME280_temperature;BME280_humidity;BME280_pressure;Samples;Min_cycle;Max_cycle;Signal;HPM_P1;HPM_P2
2021/10/29 00:00:15;;;;;;;7.85;4.53;;;;;;;;;;5027388;28;20202;-77
2021/10/29 00:02:41;;;;;;;5.65;4.50;;;;;;;;;;5029366;28;20179;-77
2021/10/29 00:05:07;;;;;;;7.65;5.35;;;;;;;;;;5017566;28;20207;-77
2021/10/29 00:07:33;;;;;;;7.00;5.22;;;;;;;;;;5020760;28;20191;-77
2021/10/29 00:12:33;;;;;;;5.55;4.30;;;;;;;;;;4779580;23;20219;-76
2021/10/29 00:17:35;;;;;;;7.40;4.40;;;;;;;;;;4230666;26;20249;-77
2021/10/29 00:20:02;;;;;;;6.63;4.35;;;;;;;;;;4996995;28;20246;-77
2021/10/29 00:22:28;;;;;;;5.35;4.70;;;;;;;;;;4995350;28;20243;-77
2021/10/29 00:24:54;;;;;;;7.20;4.73;;;;;;;;;;5001296;28;20237;-77
2021/10/29 00:27:20;;;;;;;6.70;5.00;;;;;;;;;;5000141;28;20506;-77
2021/10/29 00:29:46;;;;;;;6.35;4.90;;;;;;;;;;4999890;28;20207;-77
2021/10/29 00:32:12;;;;;;;4.83;4.37;;;;;;;;;;4987623;28;20636;-77
2021/10/29 00:34:38;;;;;;;7.07;4.60;;;;;;;;;;5003323;28;20456;-77
2021/10/29 00:37:04;;;;;;;5.15;4.07;;;;;;;;;;4991755;28;20268;-76
2021/10/29 00:39:30;;;;;;;4.53;4.13;;;;;;;;;;4998503;28;20187;-76
2021/10/29 00:41:56;;;;;;;6.22;4.28;;;;;;;;;;4992075;28;20175;-76
2021/10/29 00:44:24;;;;;;;5.50;4.88;;;;;;;;;;5001589;28;20213;-77
2021/10/29 00:46:50;;;;;;;6.35;4.50;;;;;;;;;;4998814;28;20250;-77
2021/10/29 00:49:16;;;;;;;9.18;4.55;;;;;;;;;;4998101;28;20207;-76
2021/10/29 00:51:44;;;;;;;6.65;5.18;;;;;;;;;;4998855;28;20204;-77
2021/10/29 00:54:10;;;;;;;4.80;4.05;;;;;;;;;;5003013;28;20199;-76
2021/10/29 00:56:36;;;;;;;4.63;4.10;;;;;;;;;;4997079;28;20201;-76
2021/10/29 00:59:03;;;;;;;4.35;4.00;;;;;;;;;;4993519;28;20179;-76
2021/10/29 01:01:29;;;;;;;6.47;4.18;;;;;;;;;;4997424;28;20550;-76
2021/10/29 01:03:55;;;;;;;5.30;4.40;;;;;;;;;;4996400;28;20208;-77
2021/10/29 01:06:21;;;;;;;4.72;4.05;;;;;;;;;;5002414;28;20195;-77
2021/10/29 01:08:47;;;;;;;5.20;4.70;;;;;;;;;;4993114;28;20190;-77
2021/10/29 01:11:14;;;;;;;5.00;4.50;;;;;;;;;;4996073;28;20195;-76
2021/10/29 01:13:43;;;;;;;7.20;5.00;;;;;;;;;;4997534;28;20199;-76
2021/10/29 01:16:11;;;;;;;4.28;3.58;;;;;;;;;;4996738;28;20234;-77
2021/10/29 01:18:37;;;;;;;4.90;4.40;;;;;;;;;;5003120;28;20274;-77
2021/10/29 01:21:03;;;;;;;5.53;4.30;;;;;;;;;;5003247;28;20226;-76
2021/10/29 01:23:29;;;;;;;5.78;4.20;;;;;;;;;;4997961;28;21639;-76
2021/10/29 01:26:06;;;;;;;5.72;4.82;;;;;;;;;;4990526;28;20219;-76
2021/10/29 01:28:32;;;;;;;6.15;4.13;;;;;;;;;;4992060;28;20195;-76
2021/10/29 01:30:58;;;;;;;10.38;5.32;;;;;;;;;;4992116;28;20226;-76
2021/10/29 01:33:24;;;;;;;5.93;3.85;;;;;;;;;;4990728;28;20184;-77
2021/10/29 01:35:50;;;;;;;5.93;4.13;;;;;;;;;;4999774;28;20321;-77
2021/10/29 01:38:16;;;;;;;5.28;4.18;;;;;;;;;;4984348;28;20183;-77
2021/10/29 01:40:42;;;;;;;8.98;3.90;;;;;;;;;;4997093;28;20726;-77
2021/10/29 01:43:09;;;;;;;5.63;4.05;;;;;;;;;;4995148;28;20187;-77
2021/10/29 01:45:35;;;;;;;7.10;3.65;;;;;;;;;;4994318;28;20309;-77
2021/10/29 01:48:02;;;;;;;8.55;4.40;;;;;;;;;;5001209;28;20624;-77
2021/10/29 01:50:28;;;;;;;4.80;3.70;;;;;;;;;;4996294;28;20182;-78
2021/10/29 01:52:54;;;;;;;4.45;4.03;;;;;;;;;;4997558;28;20531;-77
2021/10/29 01:55:20;;;;;;;5.68;4.57;;;;;;;;;;4993201;28;20192;-77
2021/10/29 01:57:46;;;;;;;8.77;4.03;;;;;;;;;;4991527;28;20192;-77
2021/10/29 02:00:13;;;;;;;4.85;4.20;;;;;;;;;;5002094;28;20179;-77
2021/10/29 02:02:43;;;;;;;5.55;4.47;;;;;;;;;;4987558;28;20187;-77
2021/10/29 02:05:09;;;;;;;5.72;4.00;;;;;;;;;;4993637;28;20198;-77
2021/10/29 02:07:35;;;;;;;6.57;4.65;;;;;;;;;;4995400;28;20563;-77
2021/10/29 02:10:02;;;;;;;5.20;4.70;;;;;;;;;;4991477;28;20184;-77
2021/10/29 02:12:28;;;;;;;6.32;4.25;;;;;;;;;;4992952;28;20280;-77
2021/10/29 02:14:54;;;;;;;4.45;3.88;;;;;;;;;;5000843;28;20176;-76
2021/10/29 02:17:23;;;;;;;7.33;4.90;;;;;;;;;;4995407;28;20265;-76
2021/10/29 02:19:49;;;;;;;4.90;4.30;;;;;;;;;;4994326;28;20460;-77
2021/10/29 02:22:15;;;;;;;5.47;3.60;;;;;;;;;;4998368;28;20184;-77
2021/10/29 02:24:41;;;;;;;13.88;4.53;;;;;;;;;;5000141;28;20214;-77
2021/10/29 02:27:07;;;;;;;4.50;4.10;;;;;;;;;;5004049;28;20190;-77
2021/10/29 02:29:35;;;;;;;6.22;4.20;;;;;;;;;;5001729;28;20438;-77
2021/10/29 02:32:01;;;;;;;5.00;4.50;;;;;;;;;;5001965;28;20186;-77
2021/10/29 02:34:27;;;;;;;5.30;3.42;;;;;;;;;;5001270;28;20194;-77
2021/10/29 02:36:53;;;;;;;5.32;4.65;;;;;;;;;;4994306;28;20231;-77
2021/10/29 02:39:19;;;;;;;4.30;3.90;;;;;;;;;;4997212;28;20187;-77
2021/10/29 02:41:45;;;;;;;6.00;4.43;;;;;;;;;;5003394;28;20190;-77
2021/10/29 02:44:11;;;;;;;5.80;3.60;;;;;;;;;;5001247;28;20202;-76
2021/10/29 02:46:37;;;;;;;5.00;4.50;;;;;;;;;;4996353;28;20187;-77
2021/10/29 02:49:04;;;;;;;3.85;3.53;;;;;;;;;;5011072;28;20427;-76
2021/10/29 02:51:30;;;;;;;6.70;4.15;;;;;;;;;;5001788;28;20193;-77
2021/10/29 02:53:57;;;;;;;4.20;3.80;;;;;;;;;;4991493;28;20641;-77
2021/10/29 02:56:23;;;;;;;4.95;4.15;;;;;;;;;;4998482;28;20202;-77
2021/10/29 02:58:49;;;;;;;5.23;4.30;;;;;;;;;;5000903;28;20180;-77
2021/10/29 03:01:15;;;;;;;9.83;4.70;;;;;;;;;;5000278;28;20914;-77
2021/10/29 03:03:41;;;;;;;7.88;4.50;;;;;;;;;;5001415;28;20439;-77
2021/10/29 03:06:07;;;;;;;6.80;4.43;;;;;;;;;;5002700;28;20206;-77
2021/10/29 03:08:33;;;;;;;4.80;3.75;;;;;;;;;;4998549;28;20426;-76
2021/10/29 03:10:59;;;;;;;6.75;4.13;;;;;;;;;;4999388;28;20213;-77
2021/10/29 03:13:25;;;;;;;8.13;4.60;;;;;;;;;;5000164;28;20326;-77
2021/10/29 03:15:52;;;;;;;4.65;4.18;;;;;;;;;;5004786;28;20191;-77
2021/10/29 03:18:18;;;;;;;4.97;4.43;;;;;;;;;;5002840;28;20592;-77
2021/10/29 03:20:45;;;;;;;7.28;4.78;;;;;;;;;;5001065;28;20191;-77
2021/10/29 03:23:13;;;;;;;4.30;3.90;;;;;;;;;;5003546;28;20179;-77
2021/10/29 03:25:39;;;;;;;6.03;4.32;;;;;;;;;;4990697;28;20215;-76
2021/10/29 03:28:06;;;;;;;4.38;3.55;;;;;;;;;;4998379;28;20260;-77
2021/10/29 03:30:32;;;;;;;5.25;4.45;;;;;;;;;;5000862;28;20190;-77
2021/10/29 03:32:58;;;;;;;5.82;4.35;;;;;;;;;;4990328;28;20206;-77
2021/10/29 03:35:24;;;;;;;4.50;3.88;;;;;;;;;;4998127;28;20182;-77
2021/10/29 03:40:37;;;;;;;10.55;4.35;;;;;;;;;;4993041;28;20199;-77
2021/10/29 03:43:10;;;;;;;5.72;4.15;;;;;;;;;;4995512;28;20196;-77
2021/10/29 03:45:58;;;;;;;9.70;4.78;;;;;;;;;;5001231;28;20204;-77
2021/10/29 03:48:44;;;;;;;4.85;3.35;;;;;;;;;;4993643;28;20544;-77
2021/10/29 03:51:22;;;;;;;7.00;4.80;;;;;;;;;;5002481;28;20179;-77
2021/10/29 03:56:41;;;;;;;5.53;3.88;;;;;;;;;;4988203;28;20211;-76
2021/10/29 03:59:09;;;;;;;5.32;4.25;;;;;;;;;;5000286;28;20174;-76
2021/10/29 04:01:35;;;;;;;6.55;3.95;;;;;;;;;;5006798;28;20171;-77
2021/10/29 04:04:01;;;;;;;4.07;3.67;;;;;;;;;;4998924;28;20218;-77
2021/10/29 04:06:28;;;;;;;4.38;3.95;;;;;;;;;;5002474;28;20183;-76
2021/10/29 04:08:54;;;;;;;5.13;4.30;;;;;;;;;;5000476;28;20213;-76
2021/10/29 04:11:23;;;;;;;4.60;4.00;;;;;;;;;;4999239;28;20175;-77
2021/10/29 04:13:49;;;;;;;6.47;4.05;;;;;;;;;;4991108;28;20511;-76
2021/10/29 04:16:16;;;;;;;5.70;4.30;;;;;;;;;;4996177;28;20334;-76
2021/10/29 04:18:42;;;;;;;4.22;3.75;;;;;;;;;;5004623;28;20202;-77
2021/10/29 04:21:08;;;;;;;4.22;3.80;;;;;;;;;;5003817;28;20179;-77
2021/10/29 04:23:34;;;;;;;6.78;4.70;;;;;;;;;;4998660;28;20186;-77
2021/10/29 04:26:00;;;;;;;6.70;3.90;;;;;;;;;;4990585;28;20237;-77
2021/10/29 04:28:27;;;;;;;5.00;3.53;;;;;;;;;;5002206;28;20183;-76
2021/10/29 04:30:54;;;;;;;5.40;3.35;;;;;;;;;;4999006;28;20428;-77
2021/10/29 04:33:20;;;;;;;7.25;5.13;;;;;;;;;;5001842;28;20179;-76
2021/10/29 04:35:46;;;;;;;4.95;3.80;;;;;;;;;;5002570;28;20241;-77
2021/10/29 04:38:13;;;;;;;5.60;3.40;;;;;;;;;;4996952;28;20175;-76
2021/10/29 04:40:40;;;;;;;5.07;4.15;;;;;;;;;;4999228;28;20187;-77
2021/10/29 04:43:07;;;;;;;5.40;3.33;;;;;;;;;;4997095;28;20672;-77
2021/10/29 04:45:33;;;;;;;5.00;3.55;;;;;;;;;;5003223;28;20245;-77
2021/10/29 04:47:59;;;;;;;4.25;3.80;;;;;;;;;;5004047;28;20190;-77
2021/10/29 04:50:26;;;;;;;6.80;3.78;;;;;;;;;;4987437;28;20195;-77
2021/10/29 04:52:52;;;;;;;4.43;3.45;;;;;;;;;;4999322;28;20205;-77
2021/10/29 04:55:18;;;;;;;3.70;3.30;;;;;;;;;;4998259;28;20206;-77
2021/10/29 04:57:44;;;;;;;4.28;3.72;;;;;;;;;;5001987;28;20194;-76
2021/10/29 05:00:10;;;;;;;7.47;4.57;;;;;;;;;;4992010;28;20191;-77
2021/10/29 05:02:37;;;;;;;5.22;3.17;;;;;;;;;;4996870;28;20187;-77
2021/10/29 05:05:04;;;;;;;4.78;3.40;;;;;;;;;;4999351;28;20210;-77
2021/10/29 05:07:30;;;;;;;3.95;3.22;;;;;;;;;;4992891;28;20191;-77
2021/10/29 05:09:57;;;;;;;3.70;3.13;;;;;;;;;;4996513;28;20266;-77
2021/10/29 05:12:23;;;;;;;4.35;3.67;;;;;;;;;;5001806;28;20180;-76
2021/10/29 05:14:49;;;;;;;4.50;3.25;;;;;;;;;;5003407;28;20567;-77
2021/10/29 05:17:15;;;;;;;3.37;3.07;;;;;;;;;;4997223;28;20223;-77
2021/10/29 05:19:41;;;;;;;4.22;3.83;;;;;;;;;;4997447;28;20434;-77
2021/10/29 05:22:08;;;;;;;6.10;3.75;;;;;;;;;;4991997;28;20187;-77
2021/10/29 05:24:34;;;;;;;8.02;2.95;;;;;;;;;;5000163;28;20246;-77
2021/10/29 05:27:00;;;;;;;5.55;3.88;;;;;;;;;;5001048;28;20187;-77
2021/10/29 05:29:26;;;;;;;7.07;3.67;;;;;;;;;;5001629;28;20190;-77
2021/10/29 05:31:52;;;;;;;5.65;3.10;;;;;;;;;;4991583;28;20427;-77
2021/10/29 05:34:19;;;;;;;4.10;3.50;;;;;;;;;;4992233;28;20175;-77
2021/10/29 05:36:46;;;;;;;4.55;3.40;;;;;;;;;;4991746;28;20215;-77
2021/10/29 05:39:12;;;;;;;5.15;2.97;;;;;;;;;;5001888;28;20179;-78
2021/10/29 05:41:38;;;;;;;5.47;3.58;;;;;;;;;;5001507;28;20563;-77
2021/10/29 05:44:05;;;;;;;10.52;3.45;;;;;;;;;;4997658;28;20222;-76
2021/10/29 05:46:31;;;;;;;3.67;3.38;;;;;;;;;;5002745;28;20238;-77
2021/10/29 05:48:58;;;;;;;3.78;3.30;;;;;;;;;;5002285;28;20174;-77
2021/10/29 05:51:24;;;;;;;3.42;3.10;;;;;;;;;;4989988;28;20183;-77
2021/10/29 05:53:54;;;;;;;4.63;3.08;;;;;;;;;;5001685;28;20194;-77
2021/10/29 05:56:21;;;;;;;3.38;2.97;;;;;;;;;;4996642;28;20234;-78
2021/10/29 05:58:48;;;;;;;4.00;3.42;;;;;;;;;;4995238;28;20183;-77
2021/10/29 06:01:14;;;;;;;5.32;3.25;;;;;;;;;;5003054;28;20179;-77
2021/10/29 06:03:41;;;;;;;5.40;3.15;;;;;;;;;;5002771;28;20212;-77
2021/10/29 06:06:07;;;;;;;3.85;3.15;;;;;;;;;;4994548;28;20167;-77
2021/10/29 06:08:33;;;;;;;9.87;3.30;;;;;;;;;;5000507;28;20198;-77
2021/10/29 06:10:59;;;;;;;5.05;3.00;;;;;;;;;;5002067;28;20736;-77
2021/10/29 06:13:25;;;;;;;6.70;3.42;;;;;;;;;;4999923;28;20225;-76
2021/10/29 06:15:51;;;;;;;4.20;3.22;;;;;;;;;;4999896;28;20191;-77
2021/10/29 06:18:25;;;;;;;3.42;3.13;;;;;;;;;;4995290;28;20207;-77
2021/10/29 06:20:53;;;;;;;3.60;3.30;;;;;;;;;;5000538;28;20215;-77
2021/10/29 06:23:25;;;;;;;3.78;3.10;;;;;;;;;;5000561;28;20201;-77
2021/10/29 06:25:54;;;;;;;4.10;3.10;;;;;;;;;;5003606;28;20291;-77
2021/10/29 06:28:28;;;;;;;4.07;3.63;;;;;;;;;;5005842;28;20197;-77
2021/10/29 06:30:54;;;;;;;5.20;3.47;;;;;;;;;;5000835;28;20186;-77
2021/10/29 06:33:23;;;;;;;4.93;3.25;;;;;;;;;;5004988;28;20632;-77
2021/10/29 06:35:49;;;;;;;3.28;2.97;;;;;;;;;;5000747;28;20246;-76
2021/10/29 06:38:15;;;;;;;4.55;3.25;;;;;;;;;;5001178;28;20399;-77
2021/10/29 06:40:51;;;;;;;8.38;3.20;;;;;;;;;;5000132;28;20189;-77
2021/10/29 06:43:29;;;;;;;4.97;2.75;;;;;;;;;;4999657;28;20186;-77
2021/10/29 07:42:27;;;;;;;2.85;2.13;;;;;;;;;;5003667;28;20183;-77
2021/10/29 07:44:53;;;;;;;2.50;2.30;;;;;;;;;;5000499;28;20207;-75
2021/10/29 07:47:20;;;;;;;3.20;2.43;;;;;;;;;;4997436;28;20179;-76
2021/10/29 07:49:46;;;;;;;2.88;2.13;;;;;;;;;;4998895;28;20832;-78
2021/10/29 07:52:14;;;;;;;4.63;2.60;;;;;;;;;;4995414;28;20211;-76
2021/10/29 07:54:44;;;;;;;4.05;2.75;;;;;;;;;;4993552;28;20436;-76
2021/10/29 07:57:11;;;;;;;6.00;2.88;;;;;;;;;;4991821;28;20191;-77
2021/10/29 07:59:37;;;;;;;4.88;2.60;;;;;;;;;;4997697;28;20191;-77
2021/10/29 08:02:03;;;;;;;2.47;1.90;;;;;;;;;;4998518;28;20183;-76
2021/10/29 08:04:29;;;;;;;5.10;3.03;;;;;;;;;;4999468;28;20474;-76
2021/10/29 08:06:55;;;;;;;4.80;2.03;;;;;;;;;;5005920;28;20199;-76
2021/10/29 08:09:24;;;;;;;3.05;1.98;;;;;;;;;;5002314;28;20249;-77
2021/10/29 08:11:50;;;;;;;3.85;2.88;;;;;;;;;;5003977;28;20176;-76
2021/10/29 08:14:16;;;;;;;6.68;2.63;;;;;;;;;;4999241;28;20187;-76
2021/10/29 08:16:42;;;;;;;3.80;2.22;;;;;;;;;;4987383;28;20223;-76
2021/10/29 08:19:09;;;;;;;3.97;2.10;;;;;;;;;;4995383;28;20211;-76
2021/10/29 08:21:35;;;;;;;4.07;2.38;;;;;;;;;;5000946;28;20195;-76
2021/10/29 08:24:01;;;;;;;3.13;2.42;;;;;;;;;;5000652;28;20227;-77
2021/10/29 08:26:27;;;;;;;2.55;2.15;;;;;;;;;;4997438;28;20207;-77
2021/10/29 08:28:53;;;;;;;3.65;2.22;;;;;;;;;;5004312;28;20183;-76
2021/10/29 08:31:19;;;;;;;7.65;3.20;;;;;;;;;;4993996;28;20652;-77
2021/10/29 08:33:45;;;;;;;7.93;2.83;;;;;;;;;;4992841;28;20184;-77
2021/10/29 08:36:12;;;;;;;4.13;3.00;;;;;;;;;;4987218;28;20186;-77
2021/10/29 08:38:39;;;;;;;10.88;3.70;;;;;;;;;;5003367;28;20183;-77
2021/10/29 08:41:05;;;;;;;5.07;2.70;;;;;;;;;;4997687;28;20175;-77
2021/10/29 08:43:31;;;;;;;5.97;2.73;;;;;;;;;;4991369;28;20218;-77
2021/10/29 08:45:57;;;;;;;3.77;2.07;;;;;;;;;;4996682;28;20466;-76
2021/10/29 08:48:26;;;;;;;3.58;2.28;;;;;;;;;;4992437;28;20448;-76
2021/10/29 08:50:53;;;;;;;4.57;2.42;;;;;;;;;;5000207;28;20177;-76
2021/10/29 08:53:19;;;;;;;3.22;2.33;;;;;;;;;;4998840;28;20171;-76
2021/10/29 08:55:45;;;;;;;3.00;2.13;;;;;;;;;;4999174;28;20183;-76
2021/10/29 08:58:11;;;;;;;2.53;2.33;;;;;;;;;;4996867;28;20450;-76
2021/10/29 09:00:42;;;;;;;3.90;1.90;;;;;;;;;;4998572;28;20211;-76
2021/10/29 09:03:21;;;;;;;3.80;2.50;;;;;;;;;;4991810;28;20208;-76
2021/10/29 09:06:22;;;;;;;2.33;1.63;;;;;;;;;;4997854;28;20557;-76
2021/10/29 09:31:33;;;;;;;7.13;2.50;;;;;;;;;;4977355;28;20789;-77
2021/10/29 09:34:01;;;;;;;4.28;2.55;;;;;;;;;;4980198;28;20193;-77
2021/10/29 09:36:28;;;;;;;3.05;2.10;;;;;;;;;;4967314;28;20185;-77
2021/10/29 09:38:58;;;;;;;3.75;1.95;;;;;;;;;;4982248;28;20629;-77
2021/10/29 09:41:24;;;;;;;6.10;2.40;;;;;;;;;;4980167;28;20288;-78
2021/10/29 09:44:01;;;;;;;3.97;2.15;;;;;;;;;;4961948;29;20631;-77
2021/10/29 09:46:37;;;;;;;9.05;3.03;;;;;;;;;;4978169;28;20198;-77
2021/10/29 09:49:08;;;;;;;3.80;2.70;;;;;;;;;;4963778;28;20259;-77
2021/10/29 09:51:47;;;;;;;5.07;2.80;;;;;;;;;;4981778;28;20224;-77
2021/10/29 09:54:16;;;;;;;5.00;3.13;;;;;;;;;;4968201;28;20710;-77
2021/10/29 09:56:55;;;;;;;3.55;2.22;;;;;;;;;;4984543;28;20196;-78
2021/10/29 09:59:21;;;;;;;6.38;2.85;;;;;;;;;;4980135;28;20192;-79
2021/10/29 10:01:48;;;;;;;4.45;2.45;;;;;;;;;;4969087;28;20240;-77
2021/10/29 10:04:14;;;;;;;2.85;2.42;;;;;;;;;;4963086;28;20217;-78
2021/10/29 10:06:42;;;;;;;5.38;2.63;;;;;;;;;;4971608;28;20193;-80
2021/10/29 10:09:09;;;;;;;2.42;2.22;;;;;;;;;;5005497;28;20177;-80
2021/10/29 10:11:36;;;;;;;4.85;2.70;;;;;;;;;;4989985;28;20180;-79
2021/10/29 10:14:02;;;;;;;6.43;2.58;;;;;;;;;;5002844;28;20173;-80
2021/10/29 10:16:29;;;;;;;8.25;2.65;;;;;;;;;;5000638;28;20229;-80
2021/10/29 10:18:56;;;;;;;3.22;2.60;;;;;;;;;;5000662;28;20214;-79
2021/10/29 10:21:25;;;;;;;3.17;2.50;;;;;;;;;;4995449;28;20447;-82
2021/10/29 10:23:53;;;;;;;3.70;2.70;;;;;;;;;;5001338;28;20285;-81
2021/10/29 10:42:44;;;;;;;6.00;3.47;;;;;;;;;;4994530;28;20247;-80
2021/10/29 10:45:20;;;;;;;4.45;3.80;;;;;;;;;;4988945;28;20294;-80
2021/10/29 10:47:50;;;;;;;5.30;3.60;;;;;;;;;;5005275;28;20222;-80
2021/10/29 10:50:20;;;;;;;7.10;3.55;;;;;;;;;;5000834;28;20213;-80
2021/10/29 10:55:49;;;;;;;4.90;3.65;;;;;;;;;;4993650;28;20200;-78
2021/10/29 10:58:26;;;;;;;4.80;3.72;;;;;;;;;;5001678;28;20222;-80
2021/10/29 11:01:02;;;;;;;3.63;3.30;;;;;;;;;;4999099;28;20199;-79
2021/10/29 11:04:06;;;;;;;4.30;3.40;;;;;;;;;;5001653;28;20187;-80
2021/10/29 11:10:10;;;;;;;7.88;3.30;;;;;;;;;;4978633;28;20188;-80
2021/10/29 11:12:45;;;;;;;2.65;2.45;;;;;;;;;;4964654;28;20298;-80
2021/10/29 11:15:13;;;;;;;4.60;3.45;;;;;;;;;;4967326;28;20196;-80
2021/10/29 11:17:56;;;;;;;4.40;3.42;;;;;;;;;;4966771;28;20223;-81
2021/10/29 11:20:57;;;;;;;3.15;2.88;;;;;;;;;;4965344;28;20309;-80
2021/10/29 11:23:34;;;;;;;3.38;3.08;;;;;;;;;;4964489;28;20251;-80
2021/10/29 11:26:02;;;;;;;5.90;3.53;;;;;;;;;;4974250;28;20204;-82
2021/10/29 11:28:39;;;;;;;10.00;4.15;;;;;;;;;;4966514;28;20180;-81
2021/10/29 11:31:09;;;;;;;6.65;3.90;;;;;;;;;;4979590;28;20187;-83
2021/10/29 11:33:39;;;;;;;4.68;3.38;;;;;;;;;;4980322;28;20180;-82
2021/10/29 11:36:06;;;;;;;3.30;2.85;;;;;;;;;;4965257;28;20188;-80
2021/10/29 11:38:37;;;;;;;3.03;2.70;;;;;;;;;;4966913;28;20269;-81
2021/10/29 11:41:07;;;;;;;3.53;3.20;;;;;;;;;;4978487;28;20194;-81
2021/10/29 11:43:34;;;;;;;5.47;3.38;;;;;;;;;;4988662;28;20573;-82
2021/10/29 11:46:03;;;;;;;7.88;3.40;;;;;;;;;;5003680;28;20200;-81
2021/10/29 11:48:29;;;;;;;3.88;3.47;;;;;;;;;;4993754;28;20212;-82
2021/10/29 11:51:09;;;;;;;12.00;4.50;;;;;;;;;;4988566;28;20176;-82
2021/10/29 11:53:38;;;;;;;5.40;2.63;;;;;;;;;;4987643;28;20787;-82
2021/10/29 11:56:13;;;;;;;3.45;3.15;;;;;;;;;;4998232;28;20177;-84
2021/10/29 11:58:56;;;;;;;4.20;3.75;;;;;;;;;;4989623;28;20191;-81
2021/10/29 12:09:25;;;;;;;5.43;3.67;;;;;;;;;;5003229;28;20186;-82
2021/10/29 12:12:12;;;;;;;6.35;3.55;;;;;;;;;;5004919;28;20207;-84
2021/10/29 12:14:39;;;;;;;7.72;3.20;;;;;;;;;;4997653;28;20190;-83
2021/10/29 12:17:19;;;;;;;4.78;3.00;;;;;;;;;;4999030;28;20243;-83
2021/10/29 12:19:46;;;;;;;5.40;3.60;;;;;;;;;;5002641;28;20190;-84
2021/10/29 12:22:37;;;;;;;2.80;2.60;;;;;;;;;;4994816;28;20181;-83
2021/10/29 12:25:13;;;;;;;4.25;3.10;;;;;;;;;;4997707;28;20235;-82
2021/10/29 12:27:43;;;;;;;4.25;2.60;;;;;;;;;;4996150;28;20422;-82
2021/10/29 12:30:16;;;;;;;4.72;3.45;;;;;;;;;;5002456;28;20182;-81
2021/10/29 12:33:02;;;;;;;6.07;3.00;;;;;;;;;;4990275;28;20180;-82
2021/10/29 13:03:43;;;;;;;6.22;3.55;;;;;;;;;;4942962;29;20610;-81
2021/10/29 13:06:09;;;;;;;3.67;3.13;;;;;;;;;;4926369;29;20243;-81
2021/10/29 13:08:37;;;;;;;6.25;3.45;;;;;;;;;;4926909;29;20241;-80
2021/10/29 13:11:04;;;;;;;4.50;3.30;;;;;;;;;;4943913;29;20185;-81
2021/10/29 13:16:05;;;;;;;3.53;2.75;;;;;;;;;;4942340;29;20216;-80
2021/10/29 13:19:25;;;;;;;8.27;3.83;;;;;;;;;;4925916;29;20217;-82
2021/10/29 13:51:06;;;;;;;3.60;2.90;;;;;;;;;;4992933;28;20258;-82
2021/10/29 13:53:52;;;;;;;3.60;3.20;;;;;;;;;;4997337;28;20193;-81
2021/10/29 13:56:25;;;;;;;5.40;3.65;;;;;;;;;;4999748;28;20182;-81
2021/10/29 13:59:18;;;;;;;3.47;3.13;;;;;;;;;;4997349;28;20180;-82
2021/10/29 14:31:13;;;;;;;5.85;3.17;;;;;;;;;;5000077;28;20190;-78
2021/10/29 14:33:48;;;;;;;5.03;3.40;;;;;;;;;;4994645;28;20275;-78
2021/10/29 14:36:14;;;;;;;13.18;3.88;;;;;;;;;;4993637;28;20180;-78
2021/10/29 14:38:54;;;;;;;4.10;3.17;;;;;;;;;;4989403;28;20204;-78
2021/10/29 14:41:30;;;;;;;4.20;3.28;;;;;;;;;;5001946;28;20264;-78
2021/10/29 14:44:06;;;;;;;4.55;2.35;;;;;;;;;;5005870;28;20182;-78
2021/10/29 14:46:55;;;;;;;11.18;4.15;;;;;;;;;;5002177;28;20187;-78
2021/10/29 15:24:31;;;;;;;5.47;3.70;;;;;;;;;;4972565;28;20230;-79
2021/10/29 15:29:41;;;;;;;4.13;2.75;;;;;;;;;;4980062;28;20225;-81
2021/10/29 15:43:13;;;;;;;2.55;2.35;;;;;;;;;;4994535;28;20191;-80
2021/10/29 15:45:39;;;;;;;4.40;2.60;;;;;;;;;;4992513;28;20205;-81
2021/10/29 15:50:34;;;;;;;2.53;2.33;;;;;;;;;;4989476;28;20214;-81
2021/10/29 15:53:00;;;;;;;4.32;2.35;;;;;;;;;;4991894;28;20194;-80
2021/10/29 15:56:07;;;;;;;5.57;3.33;;;;;;;;;;4997028;28;20190;-80
2021/10/29 15:58:43;;;;;;;3.83;2.30;;;;;;;;;;4993963;28;20559;-80
2021/10/29 16:01:17;;;;;;;2.63;1.83;;;;;;;;;;4997718;28;20183;-81
2021/10/29 16:17:21;;;;;;;3.85;2.40;;;;;;;;;;4979460;28;20235;-81
2021/10/29 16:19:48;;;;;;;3.00;2.70;;;;;;;;;;4962634;28;20187;-81
2021/10/29 16:22:24;;;;;;;3.00;2.50;;;;;;;;;;4963411;28;20293;-82
2021/10/29 16:24:56;;;;;;;2.78;2.58;;;;;;;;;;4963107;28;20202;-80
2021/10/29 16:27:23;;;;;;;3.92;2.80;;;;;;;;;;4980799;28;20719;-81
2021/10/29 16:29:50;;;;;;;5.40;3.13;;;;;;;;;;4969687;28;20182;-82
2021/10/29 16:32:25;;;;;;;3.47;3.05;;;;;;;;;;4979422;28;20309;-81
2021/10/29 16:34:52;;;;;;;5.03;3.33;;;;;;;;;;4977469;28;20192;-81
2021/10/29 16:37:18;;;;;;;3.17;2.90;;;;;;;;;;4963326;28;20300;-81
2021/10/29 16:39:44;;;;;;;3.58;3.28;;;;;;;;;;4962613;29;20236;-81
2021/10/29 16:42:10;;;;;;;9.05;3.00;;;;;;;;;;4976650;28;20196;-82
2021/10/29 16:44:36;;;;;;;3.92;3.55;;;;;;;;;;4975534;28;20308;-81
2021/10/29 16:47:02;;;;;;;3.60;3.10;;;;;;;;;;4978558;28;20612;-82
2021/10/29 16:49:28;;;;;;;4.13;3.00;;;;;;;;;;4998398;28;20497;-81
2021/10/29 16:51:54;;;;;;;4.50;4.10;;;;;;;;;;5002836;28;20179;-81
2021/10/29 16:54:20;;;;;;;16.93;12.93;;;;;;;;;;4989299;28;20282;-81
2021/10/29 16:56:46;;;;;;;23.17;18.47;;;;;;;;;;5003081;28;20469;-81
2021/10/29 16:59:12;;;;;;;12.63;11.32;;;;;;;;;;5014264;28;20458;-81
2021/10/29 17:01:38;;;;;;;15.18;13.55;;;;;;;;;;4994789;28;20187;-80
2021/10/29 17:04:04;;;;;;;34.63;30.97;;;;;;;;;;5011380;28;20175;-80
2021/10/29 17:06:30;;;;;;;10.63;8.98;;;;;;;;;;4993561;28;20436;-80
2021/10/29 17:08:57;;;;;;;7.73;6.93;;;;;;;;;;4993085;28;20183;-80
2021/10/29 17:11:23;;;;;;;10.07;8.43;;;;;;;;;;4987298;28;20435;-80
2021/10/29 17:13:49;;;;;;;50.03;35.43;;;;;;;;;;4995260;28;20531;-81
2021/10/29 17:16:15;;;;;;;46.67;33.97;;;;;;;;;;5012256;28;20446;-81
2021/10/29 17:18:41;;;;;;;13.00;8.90;;;;;;;;;;4999801;28;20226;-81
2021/10/29 17:21:07;;;;;;;11.07;9.97;;;;;;;;;;5000410;28;20451;-81
2021/10/29 17:23:34;;;;;;;7.10;5.70;;;;;;;;;;4998573;28;20446;-80
2021/10/29 17:26:00;;;;;;;23.40;18.48;;;;;;;;;;4997417;28;20464;-81
2021/10/29 17:28:26;;;;;;;17.58;15.82;;;;;;;;;;4998808;28;20223;-80
2021/10/29 17:30:52;;;;;;;8.88;8.07;;;;;;;;;;4993855;28;20204;-80
2021/10/29 17:33:18;;;;;;;6.30;5.07;;;;;;;;;;5001598;28;20207;-81
2021/10/29 17:35:44;;;;;;;9.40;8.60;;;;;;;;;;4986127;28;20652;-81
2021/10/29 17:38:10;;;;;;;8.03;7.20;;;;;;;;;;4998305;28;20440;-81
2021/10/29 17:40:36;;;;;;;9.50;7.53;;;;;;;;;;4999466;28;20532;-81
2021/10/29 17:43:03;;;;;;;6.70;6.10;;;;;;;;;;4994825;28;20442;-81
2021/10/29 17:45:29;;;;;;;5.68;5.07;;;;;;;;;;4998617;28;20462;-81
2021/10/29 17:47:55;;;;;;;7.88;7.18;;;;;;;;;;4988025;28;20192;-81
2021/10/29 17:50:21;;;;;;;90.00;84.85;;;;;;;;;;4997808;28;20183;-80
2021/10/29 17:52:47;;;;;;;57.40;53.43;;;;;;;;;;5007619;28;20172;-81
2021/10/29 17:55:14;;;;;;;49.45;45.38;;;;;;;;;;4996145;28;21052;-82
2021/10/29 17:57:41;;;;;;;31.77;29.38;;;;;;;;;;5018511;28;20215;-81
2021/10/29 18:00:08;;;;;;;49.63;45.88;;;;;;;;;;5003934;28;20188;-81
2021/10/29 18:02:34;;;;;;;26.52;24.85;;;;;;;;;;4991461;28;20204;-81
2021/10/29 18:05:00;;;;;;;158.93;149.90;;;;;;;;;;5017572;28;20207;-81
2021/10/29 18:07:27;;;;;;;16.25;15.25;;;;;;;;;;5001114;28;20286;-81
2021/10/29 18:09:54;;;;;;;5.30;4.85;;;;;;;;;;4999502;28;20538;-80
2021/10/29 18:12:20;;;;;;;7.90;4.95;;;;;;;;;;5004708;28;20183;-80
2021/10/29 18:14:47;;;;;;;4.65;4.13;;;;;;;;;;5000392;28;20179;-81
2021/10/29 18:17:14;;;;;;;3.97;3.50;;;;;;;;;;5001785;28;20219;-81
2021/10/29 18:19:41;;;;;;;8.27;4.28;;;;;;;;;;4995424;28;20185;-80
2021/10/29 18:22:07;;;;;;;7.22;4.18;;;;;;;;;;4997093;28;20184;-81
2021/10/29 18:24:37;;;;;;;5.05;3.45;;;;;;;;;;5003340;28;20231;-81
2021/10/29 18:27:04;;;;;;;5.55;3.17;;;;;;;;;;4991827;28;20192;-82
2021/10/29 18:29:30;;;;;;;8.73;4.05;;;;;;;;;;4991306;28;20175;-80
2021/10/29 18:31:56;;;;;;;3.72;2.95;;;;;;;;;;5003473;28;20175;-81
2021/10/29 18:34:24;;;;;;;3.55;3.25;;;;;;;;;;5000502;28;20243;-80
2021/10/29 18:36:51;;;;;;;3.58;3.28;;;;;;;;;;4999764;28;20247;-81
2021/10/29 18:39:16;;;;;;;4.15;3.63;;;;;;;;;;4988537;28;20192;-81
2021/10/29 18:41:43;;;;;;;2.93;2.63;;;;;;;;;;4999646;28;20226;-82
2021/10/29 18:44:09;;;;;;;5.47;4.00;;;;;;;;;;4996347;28;20498;-81
2021/10/29 18:46:37;;;;;;;5.55;4.40;;;;;;;;;;4998221;28;20171;-81
2021/10/29 18:49:03;;;;;;;8.55;6.50;;;;;;;;;;4999063;28;20202;-80
2021/10/29 18:51:29;;;;;;;15.68;13.40;;;;;;;;;;5003016;28;20199;-80
2021/10/29 18:53:56;;;;;;;23.95;16.80;;;;;;;;;;5000642;28;20711;-80
2021/10/29 18:56:22;;;;;;;22.67;20.77;;;;;;;;;;4989927;28;20195;-80
2021/10/29 18:58:48;;;;;;;14.02;12.82;;;;;;;;;;5016943;28;20191;-81
2021/10/29 19:01:14;;;;;;;25.08;23.33;;;;;;;;;;5000292;28;20888;-80
2021/10/29 19:03:40;;;;;;;22.45;20.85;;;;;;;;;;5004924;28;20636;-81
2021/10/29 19:06:11;;;;;;;91.03;84.18;;;;;;;;;;5020288;28;20730;-81
2021/10/29 19:08:37;;;;;;;90.20;84.32;;;;;;;;;;4989473;28;20186;-81
2021/10/29 19:11:03;;;;;;;45.77;42.57;;;;;;;;;;5002654;28;20188;-81
2021/10/29 19:13:29;;;;;;;74.40;69.93;;;;;;;;;;5010711;28;20434;-80
2021/10/29 19:15:55;;;;;;;36.17;33.80;;;;;;;;;;4997647;28;20933;-81
2021/10/29 19:18:21;;;;;;;17.38;15.95;;;;;;;;;;5004823;28;20231;-81
2021/10/29 19:20:47;;;;;;;9.53;8.93;;;;;;;;;;4990958;28;20217;-82
2021/10/29 19:23:13;;;;;;;8.93;8.05;;;;;;;;;;5000792;28;20491;-81